sensor_id;sensor_type;location;lat;lon;timestamp;temperature;humidity
54264;DHT22;40178;53.042;6.406;2022-11-20T00:01:42;-1.80;99.90
54264;DHT22;40178;53.042;6.406;2022-11-20T00:04:09;-1.80;99.90
54264;DHT22;40178;53.042;6.406;2022-11-20T00:06:35;-1.80;99.90
54264;DHT22;40178;53.042;6.406;2022-11-20T00:09:01;-1.80;99.90
54264;DHT22;40178;53.042;6.406;2022-11-20T00:11:28;-1.80;99.90
54264;DHT22;40178;53.042;6.406;2022-11-20T00:13:56;-1.70;99.90
54264;DHT22;40178;53.042;6.406;2022-11-20T00:16:24;-1.70;99.90
54264;DHT22;40178;53.042;6.406;2022-11-20T00:18:50;-1.80;99.90
54264;DHT22;40178;53.042;6.406;2022-11-20T00:21:24;-1.70;99.90
54264;DHT22;40178;53.042;6.406;2022-11-20T00:23:52;-1.70;99.90
54264;DHT22;40178;53.042;6.406;2022-11-20T00:26:19;-1.70;99.90
54264;DHT22;40178;53.042;6.406;2022-11-20T00:28:53;-1.70;99.90
54264;DHT22;40178;53.042;6.406;2022-11-20T00:31:20;-1.60;99.90
54264;DHT22;40178;53.042;6.406;2022-11-20T00:33:45;-1.60;99.90
54264;DHT22;40178;53.042;6.406;2022-11-20T00:36:16;-1.60;99.90
54264;DHT22;40178;53.042;6.406;2022-11-20T00:38:43;-1.60;99.90
54264;DHT22;40178;53.042;6.406;2022-11-20T00:41:10;-1.60;99.90
54264;DHT22;40178;53.042;6.406;2022-11-20T00:43:37;-1.50;99.90
54264;DHT22;40178;53.042;6.406;2022-11-20T00:46:08;-1.50;99.90
54264;DHT22;40178;53.042;6.406;2022-11-20T00:48:34;-1.50;99.90
54264;DHT22;40178;53.042;6.406;2022-11-20T00:51:00;-1.50;99.90
54264;DHT22;40178;53.042;6.406;2022-11-20T00:53:26;-1.50;99.90
54264;DHT22;40178;53.042;6.406;2022-11-20T00:55:55;-1.40;99.90
54264;DHT22;40178;53.042;6.406;2022-11-20T00:58:23;-1.40;99.90
54264;DHT22;40178;53.042;6.406;2022-11-20T01:00:49;-1.40;99.90
54264;DHT22;40178;53.042;6.406;2022-11-20T01:03:15;-1.40;99.90
54264;DHT22;40178;53.042;6.406;2022-11-20T01:05:41;-1.30;99.90
54264;DHT22;40178;53.042;6.406;2022-11-20T01:08:07;-1.40;99.90
54264;DHT22;40178;53.042;6.406;2022-11-20T01:10:33;-1.30;99.90
54264;DHT22;40178;53.042;6.406;2022-11-20T01:12:59;-1.40;99.90
54264;DHT22;40178;53.042;6.406;2022-11-20T01:15:43;-1.40;99.90
54264;DHT22;40178;53.042;6.406;2022-11-20T01:18:08;-1.30;99.90
54264;DHT22;40178;53.042;6.406;2022-11-20T01:20:35;-1.30;99.90
54264;DHT22;40178;53.042;6.406;2022-11-20T01:23:01;-1.40;99.90
54264;DHT22;40178;53.042;6.406;2022-11-20T01:25:27;-1.30;99.90
54264;DHT22;40178;53.042;6.406;2022-11-20T01:27:53;-1.30;99.90
54264;DHT22;40178;53.042;6.406;2022-11-20T01:30:18;-1.30;99.90
54264;DHT22;40178;53.042;6.406;2022-11-20T01:32:44;-1.30;99.90
54264;DHT22;40178;53.042;6.406;2022-11-20T01:35:09;-1.30;99.90
54264;DHT22;40178;53.042;6.406;2022-11-20T01:37:35;-1.30;99.90
54264;DHT22;40178;53.042;6.406;2022-11-20T01:40:01;-1.20;99.90
54264;DHT22;40178;53.042;6.406;2022-11-20T01:42:27;-1.30;99.90
54264;DHT22;40178;53.042;6.406;2022-11-20T01:48:14;-1.30;99.90
54264;DHT22;40178;53.042;6.406;2022-11-20T01:50:41;-1.20;99.90
54264;DHT22;40178;53.042;6.406;2022-11-20T01:53:11;-1.30;99.90
54264;DHT22;40178;53.042;6.406;2022-11-20T01:55:43;-1.20;99.90
54264;DHT22;40178;53.042;6.406;2022-11-20T01:58:11;-1.20;99.90
54264;DHT22;40178;53.042;6.406;2022-11-20T02:00:38;-1.20;99.90
54264;DHT22;40178;53.042;6.406;2022-11-20T02:03:09;-1.30;99.90
54264;DHT22;40178;53.042;6.406;2022-11-20T02:05:51;-1.20;99.90
54264;DHT22;40178;53.042;6.406;2022-11-20T02:08:20;-1.20;99.90
54264;DHT22;40178;53.042;6.406;2022-11-20T02:10:46;-1.20;99.90
54264;DHT22;40178;53.042;6.406;2022-11-20T02:13:12;-1.20;99.90
54264;DHT22;40178;53.042;6.406;2022-11-20T02:15:56;-1.30;99.90
54264;DHT22;40178;53.042;6.406;2022-11-20T02:18:22;-1.10;99.90
54264;DHT22;40178;53.042;6.406;2022-11-20T02:23:35;-1.10;99.90
54264;DHT22;40178;53.042;6.406;2022-11-20T02:26:04;-1.20;99.90
54264;DHT22;40178;53.042;6.406;2022-11-20T02:28:31;-1.20;99.90
54264;DHT22;40178;53.042;6.406;2022-11-20T02:30:57;-1.20;99.90
54264;DHT22;40178;53.042;6.406;2022-11-20T02:33:23;-1.10;99.90
54264;DHT22;40178;53.042;6.406;2022-11-20T02:35:48;-1.10;99.90
54264;DHT22;40178;53.042;6.406;2022-11-20T02:38:14;-1.10;99.90
54264;DHT22;40178;53.042;6.406;2022-11-20T02:40:41;-1.10;99.90
54264;DHT22;40178;53.042;6.406;2022-11-20T02:43:07;-1.00;99.90
54264;DHT22;40178;53.042;6.406;2022-11-20T02:45:32;-1.10;99.90
54264;DHT22;40178;53.042;6.406;2022-11-20T02:47:58;-1.00;99.90
54264;DHT22;40178;53.042;6.406;2022-11-20T02:50:24;-1.00;99.90
54264;DHT22;40178;53.042;6.406;2022-11-20T02:52:49;-1.10;99.90
54264;DHT22;40178;53.042;6.406;2022-11-20T02:55:15;-1.10;99.90
54264;DHT22;40178;53.042;6.406;2022-11-20T02:57:40;-0.30;99.90
54264;DHT22;40178;53.042;6.406;2022-11-20T03:00:06;-1.10;99.90
54264;DHT22;40178;53.042;6.406;2022-11-20T03:02:32;-1.10;99.90
54264;DHT22;40178;53.042;6.406;2022-11-20T03:04:58;-1.00;99.90
54264;DHT22;40178;53.042;6.406;2022-11-20T03:07:24;-1.10;99.90
54264;DHT22;40178;53.042;6.406;2022-11-20T03:09:50;-1.10;99.90
54264;DHT22;40178;53.042;6.406;2022-11-20T03:12:15;-1.00;99.90
54264;DHT22;40178;53.042;6.406;2022-11-20T03:14:41;-1.00;99.90
54264;DHT22;40178;53.042;6.406;2022-11-20T03:17:06;-1.00;99.90
54264;DHT22;40178;53.042;6.406;2022-11-20T03:19:32;-1.00;99.90
54264;DHT22;40178;53.042;6.406;2022-11-20T03:21:57;-1.00;99.90
54264;DHT22;40178;53.042;6.406;2022-11-20T03:24:23;-0.90;99.90
54264;DHT22;40178;53.042;6.406;2022-11-20T03:26:49;-0.90;99.90
54264;DHT22;40178;53.042;6.406;2022-11-20T03:29:14;-0.90;99.90
54264;DHT22;40178;53.042;6.406;2022-11-20T03:31:40;-0.90;99.90
54264;DHT22;40178;53.042;6.406;2022-11-20T03:34:08;-1.00;99.90
54264;DHT22;40178;53.042;6.406;2022-11-20T03:36:33;-0.90;99.90
54264;DHT22;40178;53.042;6.406;2022-11-20T03:38:59;-0.90;99.90
54264;DHT22;40178;53.042;6.406;2022-11-20T03:41:35;-0.90;99.90
54264;DHT22;40178;53.042;6.406;2022-11-20T03:44:02;-0.90;99.90
54264;DHT22;40178;53.042;6.406;2022-11-20T03:46:29;-0.90;99.90
54264;DHT22;40178;53.042;6.406;2022-11-20T03:48:55;-0.90;99.90
54264;DHT22;40178;53.042;6.406;2022-11-20T03:51:21;-0.90;99.90
54264;DHT22;40178;53.042;6.406;2022-11-20T03:53:49;-0.90;99.90
54264;DHT22;40178;53.042;6.406;2022-11-20T03:56:17;-0.90;99.90
54264;DHT22;40178;53.042;6.406;2022-11-20T03:58:43;-0.80;99.90
54264;DHT22;40178;53.042;6.406;2022-11-20T04:01:22;-0.90;99.90
54264;DHT22;40178;53.042;6.406;2022-11-20T04:03:49;-0.80;99.90
54264;DHT22;40178;53.042;6.406;2022-11-20T04:06:25;-0.80;99.90
54264;DHT22;40178;53.042;6.406;2022-11-20T04:08:51;-0.80;99.90
54264;DHT22;40178;53.042;6.406;2022-11-20T04:11:24;-0.80;99.90
54264;DHT22;40178;53.042;6.406;2022-11-20T04:13:52;-0.90;99.90
54264;DHT22;40178;53.042;6.406;2022-11-20T04:16:18;-0.70;99.90
54264;DHT22;40178;53.042;6.406;2022-11-20T04:18:44;-0.80;99.90
54264;DHT22;40178;53.042;6.406;2022-11-20T04:21:10;-0.80;99.90
54264;DHT22;40178;53.042;6.406;2022-11-20T04:23:36;-0.80;99.90
54264;DHT22;40178;53.042;6.406;2022-11-20T04:26:11;-0.90;99.90
54264;DHT22;40178;53.042;6.406;2022-11-20T04:28:37;-0.80;99.90
54264;DHT22;40178;53.042;6.406;2022-11-20T04:31:13;-0.80;99.90
54264;DHT22;40178;53.042;6.406;2022-11-20T04:33:38;-0.80;99.90
54264;DHT22;40178;53.042;6.406;2022-11-20T04:36:07;-0.80;99.90
54264;DHT22;40178;53.042;6.406;2022-11-20T04:38:33;-0.80;99.90
54264;DHT22;40178;53.042;6.406;2022-11-20T04:41:02;-0.80;99.90
54264;DHT22;40178;53.042;6.406;2022-11-20T04:43:29;-0.70;99.90
54264;DHT22;40178;53.042;6.406;2022-11-20T04:45:56;-0.80;99.90
54264;DHT22;40178;53.042;6.406;2022-11-20T04:48:22;-0.70;99.90
54264;DHT22;40178;53.042;6.406;2022-11-20T04:50:48;-0.80;99.90
54264;DHT22;40178;53.042;6.406;2022-11-20T04:53:13;-0.70;99.90
54264;DHT22;40178;53.042;6.406;2022-11-20T04:55:39;-0.70;99.90
54264;DHT22;40178;53.042;6.406;2022-11-20T04:58:04;-0.70;99.90
54264;DHT22;40178;53.042;6.406;2022-11-20T05:00:30;-0.70;99.90
54264;DHT22;40178;53.042;6.406;2022-11-20T05:02:56;-0.70;99.90
54264;DHT22;40178;53.042;6.406;2022-11-20T05:05:21;-0.70;99.90
54264;DHT22;40178;53.042;6.406;2022-11-20T05:07:47;-0.70;99.90
54264;DHT22;40178;53.042;6.406;2022-11-20T05:10:12;-0.70;99.90
54264;DHT22;40178;53.042;6.406;2022-11-20T05:12:38;-0.70;99.90
54264;DHT22;40178;53.042;6.406;2022-11-20T05:15:04;-0.70;99.90
54264;DHT22;40178;53.042;6.406;2022-11-20T05:17:29;-0.70;99.90
54264;DHT22;40178;53.042;6.406;2022-11-20T05:19:55;-0.70;99.90
54264;DHT22;40178;53.042;6.406;2022-11-20T05:22:21;-0.70;99.90
54264;DHT22;40178;53.042;6.406;2022-11-20T05:24:46;-0.70;99.90
54264;DHT22;40178;53.042;6.406;2022-11-20T05:27:12;-0.70;99.90
54264;DHT22;40178;53.042;6.406;2022-11-20T05:29:37;-0.70;99.90
54264;DHT22;40178;53.042;6.406;2022-11-20T05:32:03;-0.70;99.90
54264;DHT22;40178;53.042;6.406;2022-11-20T05:34:31;-0.70;99.90
54264;DHT22;40178;53.042;6.406;2022-11-20T05:36:56;-0.70;99.90
54264;DHT22;40178;53.042;6.406;2022-11-20T05:39:22;-0.70;99.90
54264;DHT22;40178;53.042;6.406;2022-11-20T05:41:47;-0.70;99.90
54264;DHT22;40178;53.042;6.406;2022-11-20T05:44:33;-0.70;99.90
54264;DHT22;40178;53.042;6.406;2022-11-20T05:46:58;-0.70;99.90
54264;DHT22;40178;53.042;6.406;2022-11-20T05:49:24;-0.70;99.90
54264;DHT22;40178;53.042;6.406;2022-11-20T05:51:49;-0.70;99.90
54264;DHT22;40178;53.042;6.406;2022-11-20T05:54:15;-0.70;99.90
54264;DHT22;40178;53.042;6.406;2022-11-20T05:56:40;-0.70;99.90
54264;DHT22;40178;53.042;6.406;2022-11-20T05:59:06;-0.60;99.90
54264;DHT22;40178;53.042;6.406;2022-11-20T06:01:31;-0.70;99.90
54264;DHT22;40178;53.042;6.406;2022-11-20T06:03:57;-0.60;99.90
54264;DHT22;40178;53.042;6.406;2022-11-20T06:06:23;-0.60;99.90
54264;DHT22;40178;53.042;6.406;2022-11-20T06:08:48;-0.60;99.90
54264;DHT22;40178;53.042;6.406;2022-11-20T06:11:15;-0.70;99.90
54264;DHT22;40178;53.042;6.406;2022-11-20T06:13:41;-0.60;99.90
54264;DHT22;40178;53.042;6.406;2022-11-20T06:16:07;-0.70;99.90
54264;DHT22;40178;53.042;6.406;2022-11-20T06:18:32;-0.60;99.90
54264;DHT22;40178;53.042;6.406;2022-11-20T06:21:03;-0.60;99.90
54264;DHT22;40178;53.042;6.406;2022-11-20T06:23:31;-0.60;99.90
54264;DHT22;40178;53.042;6.406;2022-11-20T06:26:00;-0.60;99.90
54264;DHT22;40178;53.042;6.406;2022-11-20T06:28:26;-0.60;99.90
54264;DHT22;40178;53.042;6.406;2022-11-20T06:30:52;-0.60;99.90
54264;DHT22;40178;53.042;6.406;2022-11-20T06:33:18;-0.60;99.90
54264;DHT22;40178;53.042;6.406;2022-11-20T06:35:43;-0.60;99.90
54264;DHT22;40178;53.042;6.406;2022-11-20T06:38:09;-0.60;99.90
54264;DHT22;40178;53.042;6.406;2022-11-20T06:40:34;-0.60;99.90
54264;DHT22;40178;53.042;6.406;2022-11-20T06:43:00;-0.60;99.90
54264;DHT22;40178;53.042;6.406;2022-11-20T06:45:25;-0.60;99.90
54264;DHT22;40178;53.042;6.406;2022-11-20T06:47:51;-0.60;99.90
54264;DHT22;40178;53.042;6.406;2022-11-20T06:50:16;-0.60;99.90
54264;DHT22;40178;53.042;6.406;2022-11-20T06:52:42;-0.60;99.90
54264;DHT22;40178;53.042;6.406;2022-11-20T06:55:08;-0.60;99.90
54264;DHT22;40178;53.042;6.406;2022-11-20T06:57:33;-0.60;99.90
54264;DHT22;40178;53.042;6.406;2022-11-20T06:59:59;-0.60;99.90
54264;DHT22;40178;53.042;6.406;2022-11-20T07:02:24;-0.60;99.90
54264;DHT22;40178;53.042;6.406;2022-11-20T07:04:50;-0.60;99.90
54264;DHT22;40178;53.042;6.406;2022-11-20T07:07:15;-0.60;99.90
54264;DHT22;40178;53.042;6.406;2022-11-20T07:09:41;-0.60;99.90
54264;DHT22;40178;53.042;6.406;2022-11-20T07:12:06;-0.60;99.90
54264;DHT22;40178;53.042;6.406;2022-11-20T07:14:32;-0.60;99.90
54264;DHT22;40178;53.042;6.406;2022-11-20T07:16:58;-0.60;99.90
54264;DHT22;40178;53.042;6.406;2022-11-20T07:19:23;-0.60;99.90
54264;DHT22;40178;53.042;6.406;2022-11-20T07:21:49;-0.60;99.90
54264;DHT22;40178;53.042;6.406;2022-11-20T07:24:14;-0.60;99.90
54264;DHT22;40178;53.042;6.406;2022-11-20T07:26:40;-0.60;99.90
54264;DHT22;40178;53.042;6.406;2022-11-20T07:29:05;-0.60;99.90
54264;DHT22;40178;53.042;6.406;2022-11-20T07:31:31;-0.60;99.90
54264;DHT22;40178;53.042;6.406;2022-11-20T07:33:56;-0.60;99.90
54264;DHT22;40178;53.042;6.406;2022-11-20T07:36:22;-0.60;99.90
54264;DHT22;40178;53.042;6.406;2022-11-20T07:38:47;-0.50;99.90
54264;DHT22;40178;53.042;6.406;2022-11-20T07:41:13;-0.50;99.90
54264;DHT22;40178;53.042;6.406;2022-11-20T07:43:38;-0.50;99.90
54264;DHT22;40178;53.042;6.406;2022-11-20T07:46:04;-0.50;99.90
54264;DHT22;40178;53.042;6.406;2022-11-20T07:48:30;-0.50;99.90
54264;DHT22;40178;53.042;6.406;2022-11-20T07:50:58;-0.50;99.90
54264;DHT22;40178;53.042;6.406;2022-11-20T07:53:24;-0.50;99.90
54264;DHT22;40178;53.042;6.406;2022-11-20T07:55:50;-0.50;99.90
54264;DHT22;40178;53.042;6.406;2022-11-20T07:58:18;-0.50;99.90
54264;DHT22;40178;53.042;6.406;2022-11-20T08:00:44;-0.50;99.90
54264;DHT22;40178;53.042;6.406;2022-11-20T08:03:09;-0.50;99.90
54264;DHT22;40178;53.042;6.406;2022-11-20T08:05:35;-0.50;99.90
54264;DHT22;40178;53.042;6.406;2022-11-20T08:08:01;-0.40;99.90
54264;DHT22;40178;53.042;6.406;2022-11-20T08:10:26;-0.40;99.90
54264;DHT22;40178;53.042;6.406;2022-11-20T08:12:53;-0.40;99.90
54264;DHT22;40178;53.042;6.406;2022-11-20T08:15:38;-0.40;99.90
54264;DHT22;40178;53.042;6.406;2022-11-20T08:18:09;-0.40;99.90
54264;DHT22;40178;53.042;6.406;2022-11-20T08:20:36;-0.30;99.90
54264;DHT22;40178;53.042;6.406;2022-11-20T08:23:04;-0.30;99.90
54264;DHT22;40178;53.042;6.406;2022-11-20T08:25:32;-0.30;99.90
54264;DHT22;40178;53.042;6.406;2022-11-20T08:27:59;-0.30;99.90
54264;DHT22;40178;53.042;6.406;2022-11-20T08:30:25;-0.30;99.90
54264;DHT22;40178;53.042;6.406;2022-11-20T08:32:51;-0.30;99.90
54264;DHT22;40178;53.042;6.406;2022-11-20T08:35:16;-0.20;99.90
54264;DHT22;40178;53.042;6.406;2022-11-20T08:37:45;-0.30;99.90
54264;DHT22;40178;53.042;6.406;2022-11-20T08:40:11;-0.30;99.90
54264;DHT22;40178;53.042;6.406;2022-11-20T08:42:37;-0.30;99.90
54264;DHT22;40178;53.042;6.406;2022-11-20T08:45:02;-0.20;99.90
54264;DHT22;40178;53.042;6.406;2022-11-20T08:47:28;-0.20;99.90
54264;DHT22;40178;53.042;6.406;2022-11-20T08:49:54;-0.20;99.90
54264;DHT22;40178;53.042;6.406;2022-11-20T08:52:19;-0.20;99.90
54264;DHT22;40178;53.042;6.406;2022-11-20T08:54:45;-0.20;99.90
54264;DHT22;40178;53.042;6.406;2022-11-20T08:57:10;-0.10;99.90
54264;DHT22;40178;53.042;6.406;2022-11-20T08:59:36;-0.10;99.90
54264;DHT22;40178;53.042;6.406;2022-11-20T09:02:01;-0.10;99.90
54264;DHT22;40178;53.042;6.406;2022-11-20T09:04:27;-0.10;99.90
54264;DHT22;40178;53.042;6.406;2022-11-20T09:06:53;0.00;99.90
54264;DHT22;40178;53.042;6.406;2022-11-20T09:09:19;0.00;99.90
54264;DHT22;40178;53.042;6.406;2022-11-20T09:11:45;0.00;99.90
54264;DHT22;40178;53.042;6.406;2022-11-20T09:14:10;0.00;99.90
54264;DHT22;40178;53.042;6.406;2022-11-20T09:16:36;0.00;99.90
54264;DHT22;40178;53.042;6.406;2022-11-20T09:19:01;0.10;99.90
54264;DHT22;40178;53.042;6.406;2022-11-20T09:21:27;0.10;99.90
54264;DHT22;40178;53.042;6.406;2022-11-20T09:23:52;0.10;99.90
54264;DHT22;40178;53.042;6.406;2022-11-20T09:26:18;0.20;99.90
54264;DHT22;40178;53.042;6.406;2022-11-20T09:28:44;0.20;99.90
54264;DHT22;40178;53.042;6.406;2022-11-20T09:31:22;0.20;99.90
54264;DHT22;40178;53.042;6.406;2022-11-20T09:33:48;0.20;99.90
54264;DHT22;40178;53.042;6.406;2022-11-20T09:36:14;0.30;99.90
54264;DHT22;40178;53.042;6.406;2022-11-20T09:38:39;0.30;99.90
54264;DHT22;40178;53.042;6.406;2022-11-20T09:41:06;0.30;99.90
54264;DHT22;40178;53.042;6.406;2022-11-20T09:43:54;0.40;99.90
54264;DHT22;40178;53.042;6.406;2022-11-20T09:46:28;0.40;99.90
54264;DHT22;40178;53.042;6.406;2022-11-20T09:49:32;0.50;99.90
54264;DHT22;40178;53.042;6.406;2022-11-20T09:52:15;0.50;99.90
54264;DHT22;40178;53.042;6.406;2022-11-20T09:54:44;0.50;99.90
54264;DHT22;40178;53.042;6.406;2022-11-20T09:57:14;0.60;99.90
54264;DHT22;40178;53.042;6.406;2022-11-20T09:59:46;0.70;99.90
54264;DHT22;40178;53.042;6.406;2022-11-20T10:05:06;0.80;99.90
54264;DHT22;40178;53.042;6.406;2022-11-20T10:07:43;0.90;99.90
54264;DHT22;40178;53.042;6.406;2022-11-20T10:10:18;0.90;99.90
54264;DHT22;40178;53.042;6.406;2022-11-20T10:24:44;1.10;99.90
54264;DHT22;40178;53.042;6.406;2022-11-20T10:27:22;1.30;99.90
54264;DHT22;40178;53.042;6.406;2022-11-20T10:32:43;1.40;99.90
54264;DHT22;40178;53.042;6.406;2022-11-20T10:37:51;1.50;99.90
54264;DHT22;40178;53.042;6.406;2022-11-20T10:40:35;1.50;99.90
54264;DHT22;40178;53.042;6.406;2022-11-20T10:43:18;1.60;99.90
54264;DHT22;40178;53.042;6.406;2022-11-20T10:48:23;1.70;99.90
54264;DHT22;40178;53.042;6.406;2022-11-20T10:51:25;1.70;99.90
54264;DHT22;40178;53.042;6.406;2022-11-20T10:54:22;1.70;97.80
54264;DHT22;40178;53.042;6.406;2022-11-20T10:56:53;1.80;93.20
54264;DHT22;40178;53.042;6.406;2022-11-20T10:59:55;1.80;89.90
54264;DHT22;40178;53.042;6.406;2022-11-20T11:02:32;1.90;99.60
54264;DHT22;40178;53.042;6.406;2022-11-20T11:05:06;1.90;99.90
54264;DHT22;40178;53.042;6.406;2022-11-20T11:07:37;2.00;99.90
54264;DHT22;40178;53.042;6.406;2022-11-20T11:10:24;2.00;92.10
54264;DHT22;40178;53.042;6.406;2022-11-20T11:12:50;2.00;93.50
54264;DHT22;40178;53.042;6.406;2022-11-20T11:15:29;2.20;91.00
54264;DHT22;40178;53.042;6.406;2022-11-20T11:17:55;2.20;96.60
54264;DHT22;40178;53.042;6.406;2022-11-20T11:20:25;2.30;98.00
54264;DHT22;40178;53.042;6.406;2022-11-20T11:22:56;2.40;98.50
54264;DHT22;40178;53.042;6.406;2022-11-20T11:27:53;2.40;93.60
54264;DHT22;40178;53.042;6.406;2022-11-20T11:30:21;2.50;92.40
54264;DHT22;40178;53.042;6.406;2022-11-20T11:32:47;2.50;73.30
54264;DHT22;40178;53.042;6.406;2022-11-20T11:35:25;2.50;62.90
54264;DHT22;40178;53.042;6.406;2022-11-20T11:37:52;2.50;78.70
54264;DHT22;40178;53.042;6.406;2022-11-20T11:40:20;2.50;58.30
54264;DHT22;40178;53.042;6.406;2022-11-20T11:42:59;2.50;82.70
54264;DHT22;40178;53.042;6.406;2022-11-20T11:45:26;2.60;81.90
54264;DHT22;40178;53.042;6.406;2022-11-20T11:47:54;2.60;46.90
54264;DHT22;40178;53.042;6.406;2022-11-20T11:50:24;2.70;25.50
54264;DHT22;40178;53.042;6.406;2022-11-20T11:52:53;2.80;28.60
54264;DHT22;40178;53.042;6.406;2022-11-20T11:58:41;2.80;55.90
54264;DHT22;40178;53.042;6.406;2022-11-20T12:01:28;2.80;1.00
54264;DHT22;40178;53.042;6.406;2022-11-20T12:06:31;3.00;33.20
54264;DHT22;40178;53.042;6.406;2022-11-20T12:09:04;3.00;26.00
54264;DHT22;40178;53.042;6.406;2022-11-20T12:11:39;3.00;21.00
54264;DHT22;40178;53.042;6.406;2022-11-20T12:16:45;3.10;12.30
54264;DHT22;40178;53.042;6.406;2022-11-20T12:19:12;3.10;22.80
54264;DHT22;40178;53.042;6.406;2022-11-20T12:22:00;3.00;1.10
54264;DHT22;40178;53.042;6.406;2022-11-20T12:27:04;2.80;8.90
54264;DHT22;40178;53.042;6.406;2022-11-20T12:30:04;2.70;12.50
54264;DHT22;40178;53.042;6.406;2022-11-20T12:53:11;2.90;1.00
54264;DHT22;40178;53.042;6.406;2022-11-20T12:55:53;3.10;1.00
54264;DHT22;40178;53.042;6.406;2022-11-20T12:58:34;3.20;1.00
54264;DHT22;40178;53.042;6.406;2022-11-20T13:01:20;3.20;1.00
54264;DHT22;40178;53.042;6.406;2022-11-20T13:06:44;3.10;1.00
54264;DHT22;40178;53.042;6.406;2022-11-20T13:09:13;3.00;99.90
54264;DHT22;40178;53.042;6.406;2022-11-20T13:12:02;3.00;1.00
54264;DHT22;40178;53.042;6.406;2022-11-20T13:14:40;3.00;99.90
54264;DHT22;40178;53.042;6.406;2022-11-20T13:17:18;3.00;1.00
54264;DHT22;40178;53.042;6.406;2022-11-20T13:19:52;3.00;1.00
54264;DHT22;40178;53.042;6.406;2022-11-20T13:22:41;3.00;1.00
54264;DHT22;40178;53.042;6.406;2022-11-20T13:25:09;3.00;1.00
54264;DHT22;40178;53.042;6.406;2022-11-20T13:27:35;3.00;1.00
54264;DHT22;40178;53.042;6.406;2022-11-20T13:30:15;3.00;99.90
54264;DHT22;40178;53.042;6.406;2022-11-20T13:33:09;2.90;99.90
54264;DHT22;40178;53.042;6.406;2022-11-20T13:36:03;2.90;99.90
54264;DHT22;40178;53.042;6.406;2022-11-20T13:38:46;2.80;1.00
54264;DHT22;40178;53.042;6.406;2022-11-20T13:41:36;2.80;99.90
54264;DHT22;40178;53.042;6.406;2022-11-20T13:44:13;2.80;99.90
54264;DHT22;40178;53.042;6.406;2022-11-20T13:46:46;2.70;99.90
54264;DHT22;40178;53.042;6.406;2022-11-20T14:00:23;2.60;99.90
54264;DHT22;40178;53.042;6.406;2022-11-20T14:03:11;2.60;1.00
54264;DHT22;40178;53.042;6.406;2022-11-20T14:05:54;2.60;1.00
54264;DHT22;40178;53.042;6.406;2022-11-20T14:08:48;2.60;99.90
54264;DHT22;40178;53.042;6.406;2022-11-20T14:14:02;2.50;99.90
54264;DHT22;40178;53.042;6.406;2022-11-20T14:16:32;2.50;99.90
54264;DHT22;40178;53.042;6.406;2022-11-20T14:19:20;2.50;1.00
54264;DHT22;40178;53.042;6.406;2022-11-20T14:21:49;2.50;1.00
54264;DHT22;40178;53.042;6.406;2022-11-20T14:24:20;2.50;99.90
54264;DHT22;40178;53.042;6.406;2022-11-20T14:26:46;2.40;1.00
54264;DHT22;40178;53.042;6.406;2022-11-20T14:29:26;2.40;1.00
54264;DHT22;40178;53.042;6.406;2022-11-20T14:31:55;2.40;99.90
54264;DHT22;40178;53.042;6.406;2022-11-20T14:34:24;2.40;50.50
54264;DHT22;40178;53.042;6.406;2022-11-20T14:36:58;2.40;99.90
54264;DHT22;40178;53.042;6.406;2022-11-20T14:39:35;2.40;99.90
54264;DHT22;40178;53.042;6.406;2022-11-20T14:42:14;2.30;1.00
54264;DHT22;40178;53.042;6.406;2022-11-20T14:44:41;2.20;99.90
54264;DHT22;40178;53.042;6.406;2022-11-20T14:47:11;2.20;47.40
54264;DHT22;40178;53.042;6.406;2022-11-20T14:49:38;2.20;99.90
54264;DHT22;40178;53.042;6.406;2022-11-20T14:52:18;2.20;99.90
54264;DHT22;40178;53.042;6.406;2022-11-20T14:54:52;2.10;1.00
54264;DHT22;40178;53.042;6.406;2022-11-20T14:57:25;2.10;99.90
54264;DHT22;40178;53.042;6.406;2022-11-20T14:59:51;2.10;99.90
54264;DHT22;40178;53.042;6.406;2022-11-20T15:02:30;2.00;1.00
54264;DHT22;40178;53.042;6.406;2022-11-20T15:05:00;2.00;99.90
54264;DHT22;40178;53.042;6.406;2022-11-20T15:07:45;1.90;99.90
54264;DHT22;40178;53.042;6.406;2022-11-20T15:10:12;1.90;99.90
54264;DHT22;40178;53.042;6.406;2022-11-20T15:13:02;1.90;99.90
54264;DHT22;40178;53.042;6.406;2022-11-20T15:15:38;1.90;99.90
54264;DHT22;40178;53.042;6.406;2022-11-20T15:18:11;1.90;1.00
54264;DHT22;40178;53.042;6.406;2022-11-20T15:20:37;1.90;1.00
54264;DHT22;40178;53.042;6.406;2022-11-20T15:23:13;2.00;1.00
54264;DHT22;40178;53.042;6.406;2022-11-20T15:25:39;1.90;99.90
54264;DHT22;40178;53.042;6.406;2022-11-20T15:28:18;1.90;1.00
54264;DHT22;40178;53.042;6.406;2022-11-20T15:30:45;1.90;1.00
54264;DHT22;40178;53.042;6.406;2022-11-20T15:33:11;1.90;1.00
54264;DHT22;40178;53.042;6.406;2022-11-20T15:35:38;1.90;99.90
54264;DHT22;40178;53.042;6.406;2022-11-20T15:38:03;1.90;1.00
54264;DHT22;40178;53.042;6.406;2022-11-20T15:40:29;1.80;1.00
54264;DHT22;40178;53.042;6.406;2022-11-20T15:42:54;1.90;1.00
54264;DHT22;40178;53.042;6.406;2022-11-20T15:45:36;1.80;1.00
54264;DHT22;40178;53.042;6.406;2022-11-20T15:48:03;1.80;1.00
54264;DHT22;40178;53.042;6.406;2022-11-20T15:50:49;1.80;11.90
54264;DHT22;40178;53.042;6.406;2022-11-20T15:53:16;1.80;27.10
54264;DHT22;40178;53.042;6.406;2022-11-20T15:55:41;1.80;1.00
54264;DHT22;40178;53.042;6.406;2022-11-20T15:58:07;1.80;1.00
54264;DHT22;40178;53.042;6.406;2022-11-20T16:00:32;1.80;1.00
54264;DHT22;40178;53.042;6.406;2022-11-20T16:02:58;1.80;1.00
54264;DHT22;40178;53.042;6.406;2022-11-20T16:05:27;1.70;1.00
54264;DHT22;40178;53.042;6.406;2022-11-20T16:07:53;1.80;1.00
54264;DHT22;40178;53.042;6.406;2022-11-20T16:10:18;1.80;1.00
54264;DHT22;40178;53.042;6.406;2022-11-20T16:12:44;1.80;1.00
54264;DHT22;40178;53.042;6.406;2022-11-20T16:15:28;1.80;1.00
54264;DHT22;40178;53.042;6.406;2022-11-20T16:18:15;1.80;1.00
54264;DHT22;40178;53.042;6.406;2022-11-20T16:20:41;1.80;1.00
54264;DHT22;40178;53.042;6.406;2022-11-20T16:23:07;1.70;1.00
54264;DHT22;40178;53.042;6.406;2022-11-20T16:25:33;1.70;14.60
54264;DHT22;40178;53.042;6.406;2022-11-20T16:27:59;1.70;40.90
54264;DHT22;40178;53.042;6.406;2022-11-20T16:30:25;1.70;13.50
54264;DHT22;40178;53.042;6.406;2022-11-20T16:32:50;1.70;13.20
54264;DHT22;40178;53.042;6.406;2022-11-20T16:35:16;1.70;26.60
54264;DHT22;40178;53.042;6.406;2022-11-20T16:37:41;1.70;32.60
54264;DHT22;40178;53.042;6.406;2022-11-20T16:40:09;1.70;20.40
54264;DHT22;40178;53.042;6.406;2022-11-20T16:42:36;1.70;27.50
54264;DHT22;40178;53.042;6.406;2022-11-20T16:45:01;1.60;35.00
54264;DHT22;40178;53.042;6.406;2022-11-20T16:47:27;1.60;29.00
54264;DHT22;40178;53.042;6.406;2022-11-20T16:49:53;1.60;26.10
54264;DHT22;40178;53.042;6.406;2022-11-20T16:52:18;1.70;29.10
54264;DHT22;40178;53.042;6.406;2022-11-20T16:54:44;1.60;29.40
54264;DHT22;40178;53.042;6.406;2022-11-20T16:57:09;1.60;27.70
54264;DHT22;40178;53.042;6.406;2022-11-20T16:59:35;1.60;28.80
54264;DHT22;40178;53.042;6.406;2022-11-20T17:02:00;1.60;30.20
54264;DHT22;40178;53.042;6.406;2022-11-20T17:04:26;1.50;30.20
54264;DHT22;40178;53.042;6.406;2022-11-20T17:06:51;1.60;30.00
54264;DHT22;40178;53.042;6.406;2022-11-20T17:09:17;1.60;40.80
54264;DHT22;40178;53.042;6.406;2022-11-20T17:11:43;1.60;31.30
54264;DHT22;40178;53.042;6.406;2022-11-20T17:14:10;1.50;24.50